This is the latest recevied weather packets stored in our database for station/object IZ2MHJ-3. If no packets are shown the sender has not sent any weather packets the latest 10 day(s).
| Time | Temp. | Humidity | Pressure | Rain* | Wind** | Luminosity | Snow |
|---|---|---|---|---|---|---|---|
| 1787676651 | 28.33° C | 57% | 1012.6 hPa | - | - | - | - |
| 1787675451 | 28.89° C | 56% | 1012.4 hPa | - | - | - | - |
| 1787674251 | 29.44° C | 54% | 1012.4 hPa | - | - | - | - |
| 1787673050 | 30.56° C | 52% | 1012.4 hPa | - | - | - | - |
| 1787671850 | 30.56° C | 51% | 1012.4 hPa | - | - | - | - |
| 1787670650 | 28.89° C | 55% | 1012.6 hPa | - | - | - | - |
| 1787669449 | 30.56° C | 51% | 1012.4 hPa | - | - | - | - |
| 1787668249 | 29.44° C | 54% | 1012.4 hPa | - | - | - | - |
| 1787667049 | 28.33° C | 58% | 1012.6 hPa | - | - | - | - |
| 1787665848 | 28.33° C | 59% | 1012.5 hPa | - | - | - | - |
| 1787664648 | 28.33° C | 57% | 1012.4 hPa | - | - | - | - |
| 1787663448 | 27.78° C | 57% | 1012.5 hPa | - | - | - | - |
| 1787662248 | 27.22° C | 62% | 1012.6 hPa | - | - | - | - |
| 1787661047 | 26.67° C | 63% | 1012.7 hPa | - | - | - | - |
| 1787659847 | 27.78° C | 65% | 1012.7 hPa | - | - | - | - |
| 1787658647 | 25.56° C | 72% | 1012.8 hPa | - | - | - | - |
| 1787657446 | 21.67° C | 84% | 1013.2 hPa | - | - | - | - |
| 1787656246 | 21.11° C | 88% | 1013.2 hPa | - | - | - | - |
| 1787655046 | 21.11° C | 87% | 1013.3 hPa | - | - | - | - |
| 1787653845 | 20.56° C | 88% | 1013.5 hPa | - | - | - | - |
| 1787652645 | 20.56° C | 91% | 1013.6 hPa | - | - | - | - |
| 1787651445 | 20.56° C | 92% | 1013.7 hPa | - | - | - | - |
| 1787650244 | 20° C | 92% | 1013.7 hPa | - | - | - | - |
| 1787649044 | 20° C | 91% | 1013.6 hPa | - | - | - | - |
| 1787647844 | 21.67° C | 78% | 1012.7 hPa | - | - | - | - |
* Rain since midnight (hover to see other rain measurements)
** Current wind speed in m/s (hover to see current wind gust speed)